Time;durP1;ratioP1;P1;durP2;ratioP2;P2;SDS_P1;SDS_P2;PMS_P1;PMS_P2;Temp;Humidity;BMP_temperature;BMP_pressure;BME280_temperature;BME280_humidity;BME280_pressure;Samples;Min_cycle;Max_cycle;Signal;HPM_P1;HPM_P2
2022/06/17 00:01:30;;;;;;;11.57;5.57;;;15.50;99.90;;;;;;4972199;28;20054;-58
2022/06/17 00:03:57;;;;;;;10.70;5.60;;;15.50;99.90;;;;;;4971361;28;20025;-57
2022/06/17 00:06:28;;;;;;;9.23;5.30;;;15.40;99.90;;;;;;4973471;28;20058;-58
2022/06/17 00:08:54;;;;;;;9.70;6.32;;;15.40;99.90;;;;;;4975196;28;20011;-57
2022/06/17 00:11:30;;;;;;;10.23;5.45;;;15.30;99.90;;;;;;4977223;28;20022;-57
2022/06/17 00:13:56;;;;;;;11.90;5.68;;;15.30;99.90;;;;;;4975104;28;20077;-57
2022/06/17 00:16:23;;;;;;;13.38;5.22;;;15.30;99.90;;;;;;4975698;28;20109;-57
2022/06/17 00:18:49;;;;;;;12.65;5.57;;;15.30;99.90;;;;;;4975265;28;20038;-56
2022/06/17 00:21:36;;;;;;;13.25;5.60;;;15.20;99.90;;;;;;4976912;28;20097;-56
2022/06/17 00:24:14;;;;;;;9.68;5.07;;;15.20;99.90;;;;;;4976872;28;20034;-56
2022/06/17 00:26:39;;;;;;;9.43;5.47;;;15.10;99.90;;;;;;4976663;28;20027;-57
2022/06/17 00:29:05;;;;;;;10.05;5.85;;;15.10;99.90;;;;;;4976845;28;20037;-57
2022/06/17 00:31:31;;;;;;;8.50;5.53;;;15.10;99.90;;;;;;4975656;28;20571;-59
2022/06/17 00:33:56;;;;;;;11.13;6.00;;;15.10;99.90;;;;;;4974733;28;20019;-56
2022/06/17 00:36:22;;;;;;;11.25;6.40;;;15.10;99.90;;;;;;4976887;28;20476;-55
2022/06/17 00:38:48;;;;;;;7.43;5.60;;;15.10;99.90;;;;;;4977104;28;20027;-56
2022/06/17 00:41:20;;;;;;;9.20;6.30;;;15.10;99.90;;;;;;4976352;28;20027;-57
2022/06/17 00:43:46;;;;;;;9.15;6.05;;;15.10;99.90;;;;;;4975384;28;20027;-55
2022/06/17 00:46:18;;;;;;;9.98;6.38;;;15.00;99.90;;;;;;4976768;28;20033;-57
2022/06/17 00:48:54;;;;;;;13.00;6.15;;;14.90;99.90;;;;;;4974910;28;20019;-57
2022/06/17 00:51:23;;;;;;;9.30;6.15;;;14.90;99.90;;;;;;4975510;28;20661;-56
2022/06/17 00:53:55;;;;;;;8.88;6.18;;;14.90;99.90;;;;;;4976815;28;20117;-57
2022/06/17 00:56:30;;;;;;;13.00;5.93;;;14.80;99.90;;;;;;4975398;28;20514;-57
2022/06/17 00:59:06;;;;;;;8.85;5.60;;;14.80;99.90;;;;;;4976756;28;20484;-56
2022/06/17 01:01:43;;;;;;;14.50;6.13;;;14.80;99.90;;;;;;4977750;28;20026;-58
2022/06/17 01:04:11;;;;;;;12.43;6.05;;;14.80;99.90;;;;;;4978241;28;20379;-57
2022/06/17 01:06:41;;;;;;;7.20;5.45;;;14.80;99.90;;;;;;4992495;28;20117;-58
2022/06/17 01:12:05;;;;;;;8.25;5.43;;;14.70;99.90;;;;;;4977786;28;20030;-57
2022/06/17 01:14:31;;;;;;;9.02;6.13;;;14.70;99.90;;;;;;4977997;28;20034;-58
2022/06/17 01:16:58;;;;;;;10.55;6.93;;;14.70;99.90;;;;;;4977965;28;20105;-58
2022/06/17 01:19:44;;;;;;;8.48;6.03;;;14.60;99.90;;;;;;4976154;28;20057;-58
2022/06/17 01:22:26;;;;;;;8.90;6.18;;;14.60;99.90;;;;;;4977319;28;20484;-58
2022/06/17 01:25:05;;;;;;;7.45;5.15;;;14.60;99.90;;;;;;4976775;28;20150;-58
2022/06/17 01:27:35;;;;;;;13.38;5.95;;;14.60;99.90;;;;;;4976982;28;20046;-57
2022/06/17 01:30:04;;;;;;;8.20;6.07;;;14.60;99.90;;;;;;4976814;28;20058;-58
2022/06/17 01:32:36;;;;;;;12.23;5.55;;;14.50;99.90;;;;;;4976568;28;20106;-58
2022/06/17 01:35:02;;;;;;;11.45;6.47;;;14.50;99.90;;;;;;4991486;28;20027;-59
2022/06/17 01:37:29;;;;;;;10.60;5.95;;;14.50;99.90;;;;;;4976317;28;20031;-59
2022/06/17 01:39:56;;;;;;;14.05;6.72;;;14.50;99.90;;;;;;4975100;28;20064;-58
2022/06/17 01:42:23;;;;;;;11.50;6.82;;;14.50;99.90;;;;;;4976549;28;20487;-56
2022/06/17 01:44:53;;;;;;;11.70;6.65;;;14.50;99.90;;;;;;4976245;28;20392;-57
2022/06/17 01:47:22;;;;;;;9.03;6.07;;;14.50;99.90;;;;;;4976058;28;20038;-59
2022/06/17 01:49:53;;;;;;;8.02;5.78;;;14.40;99.90;;;;;;4976363;28;20619;-58
2022/06/17 01:52:33;;;;;;;8.85;6.97;;;14.50;99.90;;;;;;4976754;28;20448;-58
2022/06/17 01:55:07;;;;;;;12.80;7.40;;;14.40;99.90;;;;;;4976461;28;20034;-58
2022/06/17 01:57:37;;;;;;;9.98;6.20;;;14.50;99.90;;;;;;4976065;28;20034;-56
2022/06/17 02:00:17;;;;;;;13.65;6.45;;;14.50;99.90;;;;;;4976279;28;20031;-58
2022/06/17 02:02:47;;;;;;;9.45;6.40;;;14.40;99.90;;;;;;4975881;28;20019;-58
2022/06/17 02:05:13;;;;;;;8.50;6.15;;;14.40;99.90;;;;;;4975803;28;20027;-59
2022/06/17 02:07:55;;;;;;;9.60;6.00;;;14.40;99.90;;;;;;4975096;28;20436;-57
2022/06/17 02:10:22;;;;;;;13.98;7.13;;;14.40;99.90;;;;;;4976119;28;20101;-58
2022/06/17 02:12:49;;;;;;;11.70;7.00;;;14.40;99.90;;;;;;4975936;28;20022;-58
2022/06/17 02:15:15;;;;;;;9.88;6.97;;;14.40;99.90;;;;;;4976018;28;20027;-58
2022/06/17 02:17:43;;;;;;;13.45;7.55;;;14.40;99.90;;;;;;4976001;28;20042;-54
2022/06/17 02:20:11;;;;;;;9.30;6.65;;;14.30;99.90;;;;;;4975546;28;20440;-56
2022/06/17 02:22:37;;;;;;;9.98;6.68;;;14.30;99.90;;;;;;4975686;28;20031;-57
2022/06/17 02:25:17;;;;;;;9.05;6.50;;;14.20;99.90;;;;;;4975543;28;20030;-58
2022/06/17 02:27:44;;;;;;;11.98;6.47;;;14.20;99.90;;;;;;4975460;28;20400;-55
2022/06/17 02:30:10;;;;;;;12.85;7.40;;;14.20;99.90;;;;;;4975495;28;20038;-55
2022/06/17 02:32:37;;;;;;;13.52;7.57;;;14.20;99.90;;;;;;4975437;28;20109;-57
2022/06/17 02:35:14;;;;;;;10.43;6.82;;;14.20;99.90;;;;;;4975624;28;20018;-54
2022/06/17 02:37:40;;;;;;;13.75;7.38;;;14.20;99.90;;;;;;4975733;28;20034;-53
2022/06/17 02:40:34;;;;;;;10.57;6.55;;;14.10;99.90;;;;;;4975736;28;20023;-54
2022/06/17 02:43:04;;;;;;;15.60;7.00;;;14.10;99.90;;;;;;4989701;28;20042;-57
2022/06/17 02:45:34;;;;;;;9.85;6.70;;;14.20;99.90;;;;;;4975177;28;20027;-57
2022/06/17 02:48:01;;;;;;;12.52;7.28;;;14.10;99.90;;;;;;4975282;28;20027;-58
2022/06/17 02:50:28;;;;;;;10.05;6.55;;;14.20;99.90;;;;;;4975867;28;20038;-58
2022/06/17 02:52:56;;;;;;;14.50;6.72;;;14.20;99.90;;;;;;4973880;28;20129;-56
2022/06/17 02:55:35;;;;;;;9.73;7.45;;;14.10;99.90;;;;;;4974879;28;20031;-58
2022/06/17 02:58:21;;;;;;;12.88;8.27;;;14.20;99.90;;;;;;4974985;28;20030;-57
2022/06/17 03:00:46;;;;;;;10.77;7.60;;;14.10;99.90;;;;;;4974977;28;20019;-59
2022/06/17 03:03:15;;;;;;;10.73;7.82;;;14.10;99.90;;;;;;4975016;28;20050;-55
2022/06/17 03:05:44;;;;;;;12.43;7.47;;;14.10;99.90;;;;;;4975040;28;20027;-57
2022/06/17 03:08:19;;;;;;;8.93;6.70;;;14.10;99.90;;;;;;4989909;28;20030;-56
2022/06/17 03:10:47;;;;;;;13.27;8.25;;;14.10;99.90;;;;;;4975009;28;20027;-57
2022/06/17 03:13:20;;;;;;;12.40;7.35;;;14.10;99.90;;;;;;4975067;28;20057;-56
2022/06/17 03:15:49;;;;;;;14.65;7.95;;;14.10;99.90;;;;;;4975372;28;20077;-57
2022/06/17 03:18:14;;;;;;;13.30;7.28;;;14.10;99.90;;;;;;4975621;28;20037;-55
2022/06/17 03:20:42;;;;;;;11.90;7.70;;;14.10;99.90;;;;;;4979134;28;20027;-57
2022/06/17 03:23:13;;;;;;;15.48;8.05;;;14.10;99.90;;;;;;4976906;28;20034;-58
2022/06/17 03:25:41;;;;;;;;;;;14.10;99.90;;;;;;4976421;28;20027;-57
2022/06/17 03:28:10;;;;;;;12.70;7.88;;;14.10;99.90;;;;;;4975456;28;20073;-54
2022/06/17 03:30:39;;;;;;;12.77;7.85;;;14.00;99.90;;;;;;4990043;28;20407;-56
2022/06/17 03:33:43;;;;;;;10.60;7.90;;;14.00;99.90;;;;;;4975135;28;20108;-57
2022/06/17 03:36:15;;;;;;;14.27;8.25;;;14.00;99.90;;;;;;4974757;28;20077;-57
2022/06/17 03:38:49;;;;;;;12.00;7.95;;;14.00;99.90;;;;;;4975145;28;20026;-57
2022/06/17 03:41:27;;;;;;;16.65;7.53;;;14.00;99.90;;;;;;4974772;28;20515;-54
2022/06/17 03:44:01;;;;;;;10.75;8.52;;;14.00;99.90;;;;;;4973809;28;20034;-57
2022/06/17 03:46:31;;;;;;;12.75;7.88;;;14.00;99.90;;;;;;4989244;28;20023;-57
2022/06/17 03:49:10;;;;;;;11.68;8.07;;;14.00;99.90;;;;;;4973722;28;20027;-57
2022/06/17 03:51:39;;;;;;;11.77;8.90;;;14.00;99.90;;;;;;4974888;28;20023;-56
2022/06/17 03:54:05;;;;;;;12.85;8.63;;;14.00;99.90;;;;;;4973592;28;20510;-57
2022/06/17 03:56:33;;;;;;;13.25;8.90;;;14.00;99.90;;;;;;4974515;28;20027;-56
2022/06/17 03:59:03;;;;;;;12.23;8.40;;;14.00;99.90;;;;;;4974095;28;20428;-57
2022/06/17 04:01:45;;;;;;;13.17;8.53;;;14.00;99.90;;;;;;4975213;28;20027;-58
2022/06/17 04:04:38;;;;;;;13.40;8.77;;;14.00;99.90;;;;;;4974441;28;20297;-56
2022/06/17 04:07:04;;;;;;;17.83;8.82;;;14.10;99.90;;;;;;4972663;28;20030;-57
2022/06/17 04:09:32;;;;;;;14.15;8.82;;;14.10;99.90;;;;;;4974633;28;20041;-58
2022/06/17 04:12:03;;;;;;;14.32;8.90;;;14.00;99.90;;;;;;4973969;28;20031;-57
2022/06/17 04:14:54;;;;;;;12.73;9.57;;;14.00;99.90;;;;;;4989241;28;20065;-57
2022/06/17 04:17:29;;;;;;;17.33;9.38;;;14.10;99.90;;;;;;4973614;28;20113;-58
2022/06/17 04:20:22;;;;;;;13.95;9.95;;;14.20;99.90;;;;;;4974330;28;20031;-57
2022/06/17 04:22:50;;;;;;;14.30;9.68;;;14.20;99.90;;;;;;4974218;28;20023;-58
2022/06/17 04:25:22;;;;;;;12.20;8.82;;;14.30;99.90;;;;;;4973758;28;20424;-56
2022/06/17 04:27:56;;;;;;;14.27;10.35;;;14.30;99.90;;;;;;4969649;28;20121;-57
2022/06/17 04:30:27;;;;;;;17.85;10.35;;;14.30;99.90;;;;;;4974004;28;20387;-54
2022/06/17 04:32:58;;;;;;;13.53;10.70;;;14.30;99.90;;;;;;4974461;28;20035;-56
2022/06/17 04:35:24;;;;;;;17.20;9.80;;;14.40;99.90;;;;;;4974511;28;20035;-57
2022/06/17 04:37:49;;;;;;;15.38;9.40;;;14.40;99.90;;;;;;4972013;28;20047;-58
2022/06/17 04:40:26;;;;;;;12.35;9.88;;;14.40;99.90;;;;;;4973773;28;20055;-58
2022/06/17 04:42:54;;;;;;;14.23;10.15;;;14.40;99.90;;;;;;4972671;28;20031;-59
2022/06/17 04:45:23;;;;;;;15.48;10.43;;;14.40;99.90;;;;;;4972836;28;20047;-58
2022/06/17 04:47:48;;;;;;;13.05;9.30;;;14.50;99.90;;;;;;4988021;28;20411;-58
2022/06/17 04:50:17;;;;;;;15.45;10.23;;;14.50;99.90;;;;;;4973929;28;20026;-58
2022/06/17 04:52:47;;;;;;;17.52;9.88;;;14.60;99.90;;;;;;4973105;28;20030;-58
2022/06/17 04:55:25;;;;;;;16.70;10.27;;;14.70;99.90;;;;;;4974586;28;20038;-58
2022/06/17 04:57:50;;;;;;;12.93;9.98;;;14.70;99.90;;;;;;4977230;28;20027;-58
2022/06/17 05:00:25;;;;;;;16.58;9.77;;;14.80;99.90;;;;;;4977261;28;20023;-58
2022/06/17 05:02:51;;;;;;;14.90;10.20;;;14.80;99.90;;;;;;4977218;28;20380;-58
2022/06/17 05:05:33;;;;;;;13.60;9.98;;;15.00;99.90;;;;;;4976977;28;20030;-58
2022/06/17 05:08:03;;;;;;;14.98;9.63;;;15.00;99.90;;;;;;4977254;28;20031;-56
2022/06/17 05:10:37;;;;;;;12.80;9.20;;;15.10;99.90;;;;;;4977044;28;20440;-57
2022/06/17 05:13:18;;;;;;;14.55;8.65;;;15.20;99.90;;;;;;4976895;28;20030;-59
2022/06/17 05:15:44;;;;;;;14.23;8.95;;;15.30;99.90;;;;;;4977190;28;20118;-56
2022/06/17 05:18:09;;;;;;;15.23;9.30;;;15.40;99.90;;;;;;4976708;28;20504;-56
2022/06/17 05:20:35;;;;;;;12.52;8.27;;;15.50;99.90;;;;;;4975321;28;20488;-58
2022/06/17 05:23:06;;;;;;;13.52;9.13;;;15.60;99.90;;;;;;4976833;28;20468;-56
2022/06/17 05:25:38;;;;;;;12.55;8.90;;;15.70;99.90;;;;;;4976748;28;20030;-59
2022/06/17 05:28:04;;;;;;;;;;;15.80;99.90;;;;;;4977039;28;20042;-55
2022/06/17 05:30:34;;;;;;;14.85;8.13;;;15.90;99.90;;;;;;4976887;28;19906;-57
2022/06/17 05:33:00;;;;;;;12.68;7.95;;;16.00;99.90;;;;;;4978228;28;20412;-56
2022/06/17 05:35:26;;;;;;;11.50;7.10;;;16.10;99.90;;;;;;4977744;28;20034;-57
2022/06/17 05:37:51;;;;;;;12.73;7.55;;;16.20;99.90;;;;;;4977163;28;20022;-56
2022/06/17 05:40:18;;;;;;;15.77;7.85;;;16.30;99.90;;;;;;4976478;28;20101;-58
2022/06/17 05:42:45;;;;;;;11.98;7.65;;;16.40;99.90;;;;;;4976654;28;20093;-56
2022/06/17 05:45:16;;;;;;;17.60;7.93;;;16.60;99.90;;;;;;4976634;28;20037;-57
2022/06/17 05:47:41;;;;;;;11.55;6.85;;;16.60;99.90;;;;;;4976550;28;20018;-58
2022/06/17 05:50:10;;;;;;;15.63;7.07;;;16.70;99.90;;;;;;4976460;28;20463;-57
2022/06/17 05:52:49;;;;;;;9.13;6.65;;;16.80;99.90;;;;;;4976366;28;20026;-56
2022/06/17 05:55:15;;;;;;;9.50;6.38;;;16.90;99.90;;;;;;4976479;28;20061;-56
2022/06/17 05:57:41;;;;;;;12.35;7.22;;;17.00;99.90;;;;;;4976221;28;20149;-58
2022/06/17 06:00:07;;;;;;;12.88;6.82;;;17.10;99.90;;;;;;4976217;28;20447;-59
2022/06/17 06:02:33;;;;;;;11.02;7.10;;;17.20;99.90;;;;;;4976157;28;20388;-59
2022/06/17 06:04:59;;;;;;;12.05;6.32;;;17.30;99.90;;;;;;4976344;28;20484;-59
2022/06/17 06:07:24;;;;;;;12.70;5.97;;;17.40;99.90;;;;;;4976016;28;20034;-57
2022/06/17 06:09:50;;;;;;;12.93;6.80;;;17.50;99.90;;;;;;4976474;28;20105;-59
2022/06/17 06:12:17;;;;;;;14.05;6.10;;;17.60;99.90;;;;;;4977223;28;20037;-58
2022/06/17 06:14:43;;;;;;;17.33;5.25;;;17.70;99.90;;;;;;4979483;28;20051;-59
2022/06/17 06:17:11;;;;;;;9.57;5.50;;;17.80;99.90;;;;;;4976762;28;20050;-55
2022/06/17 06:19:36;;;;;;;9.85;6.07;;;17.90;99.90;;;;;;4976043;28;20026;-58
2022/06/17 06:22:02;;;;;;;8.70;5.43;;;18.00;99.90;;;;;;4975995;28;20428;-56
2022/06/17 06:24:28;;;;;;;7.60;5.43;;;18.20;99.90;;;;;;4975927;28;20023;-58
2022/06/17 06:26:54;;;;;;;9.32;4.88;;;18.30;99.90;;;;;;4991184;28;20496;-57
2022/06/17 06:29:20;;;;;;;8.68;5.50;;;18.40;99.90;;;;;;4976314;28;20077;-58
2022/06/17 06:31:46;;;;;;;6.70;5.30;;;18.50;99.90;;;;;;4976266;28;20027;-59
2022/06/17 06:34:13;;;;;;;9.25;5.40;;;18.60;99.90;;;;;;4976591;28;20027;-59
2022/06/17 06:36:39;;;;;;;14.98;4.90;;;18.70;99.90;;;;;;4975308;28;20027;-60
2022/06/17 06:39:04;;;;;;;11.10;4.68;;;18.80;99.90;;;;;;4976670;28;20030;-58
2022/06/17 06:41:30;;;;;;;12.00;4.72;;;18.90;99.90;;;;;;4976600;28;20038;-59
2022/06/17 06:43:56;;;;;;;10.23;4.65;;;19.00;99.90;;;;;;4976550;28;20058;-57
2022/06/17 06:46:25;;;;;;;11.75;4.88;;;19.10;99.90;;;;;;4976258;28;20029;-59
2022/06/17 06:48:51;;;;;;;10.68;4.90;;;19.30;99.90;;;;;;4991427;28;20093;-60
2022/06/17 06:51:19;;;;;;;7.80;4.93;;;19.50;99.90;;;;;;4976116;28;20031;-59
2022/06/17 06:53:45;;;;;;;10.77;4.30;;;19.70;99.90;;;;;;4989401;28;20022;-59
2022/06/17 06:56:11;;;;;;;10.93;4.53;;;20.10;99.90;;;;;;4973130;28;20027;-60
2022/06/17 06:58:37;;;;;;;5.78;3.72;;;20.30;99.90;;;;;;4976441;28;20022;-59
2022/06/17 07:01:03;;;;;;;7.03;4.13;;;20.70;99.90;;;;;;4975567;28;20038;-57
2022/06/17 07:03:30;;;;;;;7.22;3.70;;;20.90;99.90;;;;;;4975068;28;20110;-55
2022/06/17 07:05:59;;;;;;;5.43;3.58;;;21.20;99.90;;;;;;4974586;28;20042;-58
2022/06/17 07:08:27;;;;;;;9.30;4.47;;;21.30;99.90;;;;;;4958927;28;20110;-58
2022/06/17 07:10:55;;;;;;;9.25;3.78;;;21.40;99.90;;;;;;4964836;28;20031;-57
2022/06/17 07:13:22;;;;;;;7.55;3.95;;;21.40;99.90;;;;;;4984340;28;20125;-59
2022/06/17 07:15:49;;;;;;;7.18;3.90;;;21.40;99.90;;;;;;4972598;28;20039;-58
2022/06/17 07:18:15;;;;;;;5.72;3.70;;;21.50;99.90;;;;;;4975006;28;20420;-59
2022/06/17 07:20:45;;;;;;;7.60;3.65;;;21.60;99.90;;;;;;4975580;28;20026;-59
2022/06/17 07:23:17;;;;;;;7.95;3.78;;;21.80;99.90;;;;;;4969752;28;20023;-60
2022/06/17 07:25:43;;;;;;;6.20;3.42;;;22.00;99.90;;;;;;4967554;28;20461;-58
2022/06/17 07:28:15;;;;;;;6.13;3.20;;;21.90;99.90;;;;;;4965824;28;20078;-58
2022/06/17 07:30:43;;;;;;;9.00;3.58;;;22.00;99.90;;;;;;4964799;28;20101;-61
2022/06/17 07:33:09;;;;;;;6.55;3.65;;;22.00;99.90;;;;;;4981140;28;20122;-57
2022/06/17 07:35:35;;;;;;;7.82;3.35;;;22.10;99.90;;;;;;4964268;28;20447;-58
2022/06/17 07:40:47;;;;;;;8.90;4.07;;;22.20;99.90;;;;;;4964681;28;20037;-58
2022/06/17 07:43:15;;;;;;;4.00;3.30;;;22.10;99.90;;;;;;4962280;28;20544;-59
2022/06/17 07:45:41;;;;;;;10.00;4.15;;;22.00;99.90;;;;;;4962764;28;20045;-57
2022/06/17 07:48:08;;;;;;;7.43;3.08;;;22.10;99.90;;;;;;4967067;28;20019;-57
2022/06/17 07:50:34;;;;;;;6.90;3.30;;;22.10;99.90;;;;;;4962811;28;20027;-58
2022/06/17 07:53:00;;;;;;;6.47;3.03;;;22.30;99.90;;;;;;4954094;28;20028;-58
2022/06/17 07:55:26;;;;;;;5.20;3.58;;;22.40;99.90;;;;;;4954391;28;20055;-58
2022/06/17 07:57:52;;;;;;;6.32;3.15;;;22.50;99.90;;;;;;4965450;28;20041;-59
2022/06/17 08:00:21;;;;;;;9.13;3.42;;;22.60;99.90;;;;;;4973640;28;20030;-57
2022/06/17 08:02:47;;;;;;;4.00;3.10;;;22.70;99.90;;;;;;4971821;28;20027;-57
2022/06/17 08:05:13;;;;;;;6.28;4.30;;;22.80;99.90;;;;;;4972107;28;20506;-59
2022/06/17 08:07:38;;;;;;;6.68;3.42;;;22.90;99.90;;;;;;4973649;28;20025;-59
2022/06/17 08:10:05;;;;;;;6.38;3.78;;;23.00;99.90;;;;;;4973045;28;20023;-59
2022/06/17 08:12:31;;;;;;;9.60;3.00;;;23.20;99.90;;;;;;4974169;28;20038;-58
2022/06/17 08:14:56;;;;;;;3.75;2.92;;;23.30;99.90;;;;;;4974884;28;20035;-59
2022/06/17 08:17:23;;;;;;;4.90;3.17;;;23.40;99.90;;;;;;4974477;28;20038;-59
2022/06/17 08:19:52;;;;;;;4.45;3.03;;;23.50;99.90;;;;;;4974830;28;20507;-59
2022/06/17 08:22:19;;;;;;;7.75;3.28;;;23.70;99.90;;;;;;4974567;28;20035;-60
2022/06/17 08:24:44;;;;;;;4.80;3.55;;;23.90;99.90;;;;;;4974854;28;20031;-60
2022/06/17 08:27:10;;;;;;;6.18;3.60;;;23.90;99.90;;;;;;4973054;28;20039;-59
2022/06/17 08:29:36;;;;;;;4.10;2.90;;;23.80;99.90;;;;;;4974884;28;20066;-57
2022/06/17 08:34:46;;;;;;;6.22;3.10;;;23.90;99.10;;;;;;4978525;28;20115;-59
2022/06/17 08:37:14;;;;;;;3.58;3.25;;;24.00;98.60;;;;;;4978039;28;20114;-61
2022/06/17 08:39:42;;;;;;;5.53;3.95;;;24.00;98.10;;;;;;4977715;28;20496;-58
2022/06/17 08:42:32;;;;;;;5.63;3.08;;;24.10;98.30;;;;;;4978873;28;20058;-57
2022/06/17 08:45:07;;;;;;;9.35;4.30;;;24.20;98.30;;;;;;4978854;28;20051;-59
2022/06/17 08:48:06;;;;;;;4.40;3.55;;;24.20;98.20;;;;;;4978053;28;20023;-58
2022/06/17 08:50:40;;;;;;;9.25;3.97;;;24.20;98.10;;;;;;4965632;28;20097;-59
2022/06/17 08:53:13;;;;;;;6.78;3.45;;;24.30;97.60;;;;;;4967119;28;20023;-59
2022/06/17 08:55:45;;;;;;;6.15;3.03;;;24.00;97.50;;;;;;4969790;28;20037;-59
2022/06/17 08:58:51;;;;;;;4.70;3.17;;;24.00;97.30;;;;;;4969149;28;20038;-60
2022/06/17 09:01:28;;;;;;;5.40;3.85;;;24.20;96.90;;;;;;4976092;28;20039;-58
2022/06/17 09:04:19;;;;;;;6.50;3.60;;;24.20;96.60;;;;;;4971841;28;20488;-59
2022/06/17 09:06:54;;;;;;;5.25;3.78;;;24.20;96.50;;;;;;4960193;28;20035;-61
2022/06/17 09:09:32;;;;;;;7.97;3.15;;;24.30;96.10;;;;;;4977696;28;20113;-59
2022/06/17 09:12:16;;;;;;;8.68;3.30;;;24.10;96.30;;;;;;4977120;28;20033;-60
2022/06/17 09:14:59;;;;;;;7.72;3.75;;;24.30;95.80;;;;;;4968815;28;20034;-59
2022/06/17 09:17:37;;;;;;;4.63;3.15;;;24.40;95.50;;;;;;4982507;28;20023;-60
2022/06/17 09:20:04;;;;;;;9.80;5.05;;;24.20;95.20;;;;;;4989373;28;20548;-59
2022/06/17 09:22:49;;;;;;;6.55;3.40;;;24.20;95.60;;;;;;4978430;28;20026;-58
2022/06/17 09:25:20;;;;;;;8.02;4.13;;;24.40;95.60;;;;;;4977535;28;20031;-56
2022/06/17 09:27:50;;;;;;;6.72;3.45;;;24.20;95.00;;;;;;4977067;28;20093;-58
2022/06/17 09:30:29;;;;;;;6.30;4.45;;;24.30;95.50;;;;;;4977363;28;20042;-60
2022/06/17 09:33:14;;;;;;;7.13;4.07;;;24.40;96.00;;;;;;4977260;28;20101;-58
2022/06/17 09:36:05;;;;;;;6.20;3.33;;;24.60;95.80;;;;;;4977437;28;20050;-59
2022/06/17 09:38:48;;;;;;;5.85;3.80;;;24.80;95.20;;;;;;4977465;28;20055;-59
2022/06/17 09:41:36;;;;;;;9.10;3.90;;;24.80;95.30;;;;;;4976390;28;20503;-61
2022/06/17 09:44:13;;;;;;;9.05;4.88;;;24.90;94.90;;;;;;4982042;28;20035;-59
2022/06/17 09:47:01;;;;;;;8.07;3.78;;;24.80;94.50;;;;;;4975318;28;20059;-58
2022/06/17 09:49:47;;;;;;;8.95;3.63;;;24.80;94.90;;;;;;4974592;28;20027;-59
2022/06/17 09:52:18;;;;;;;6.30;3.40;;;24.80;94.80;;;;;;4976663;28;20026;-60
2022/06/17 09:55:04;;;;;;;6.93;3.63;;;25.00;94.70;;;;;;4976265;28;20093;-60
2022/06/17 09:57:39;;;;;;;6.35;2.92;;;25.00;94.50;;;;;;4976298;28;20113;-59
2022/06/17 10:00:15;;;;;;;5.72;3.70;;;24.90;94.60;;;;;;4971266;28;20034;-59
2022/06/17 10:02:59;;;;;;;7.78;3.45;;;25.00;93.40;;;;;;4975750;28;20027;-60
2022/06/17 10:05:43;;;;;;;7.47;3.72;;;24.80;93.40;;;;;;4976951;28;20380;-58
2022/06/17 10:08:32;;;;;;;7.60;3.50;;;24.60;93.60;;;;;;4991704;28;20027;-60
2022/06/17 10:11:26;;;;;;;6.55;3.92;;;24.60;93.80;;;;;;4975530;28;20480;-59
2022/06/17 10:14:18;;;;;;;5.32;3.50;;;24.40;94.50;;;;;;4976660;28;20032;-58
2022/06/17 10:20:03;;;;;;;8.40;3.70;;;24.40;95.10;;;;;;4975504;28;20038;-57
2022/06/17 10:22:35;;;;;;;4.82;3.55;;;24.50;95.80;;;;;;4973939;28;20033;-59
2022/06/17 10:25:29;;;;;;;12.25;4.13;;;24.60;96.10;;;;;;4974902;28;20085;-60
2022/06/17 10:28:06;;;;;;;8.15;4.53;;;24.80;95.60;;;;;;4995021;23;20133;-71
2022/06/17 10:30:55;;;;;;;9.25;3.50;;;24.70;95.70;;;;;;5010033;22;20046;-59
2022/06/17 10:33:21;;;;;;;5.72;3.75;;;24.80;96.00;;;;;;4992406;28;20023;-61
2022/06/17 10:35:48;;;;;;;8.52;5.22;;;24.80;96.30;;;;;;4993198;28;20022;-59
2022/06/17 10:38:37;;;;;;;8.07;4.43;;;24.80;95.50;;;;;;4993945;28;20344;-61
2022/06/17 10:41:03;;;;;;;6.07;4.57;;;24.80;95.30;;;;;;4994475;28;20058;-61
2022/06/17 10:43:36;;;;;;;5.85;4.47;;;24.90;95.20;;;;;;4993114;28;20065;-61
2022/06/17 10:46:03;;;;;;;10.45;4.88;;;24.80;95.40;;;;;;4987728;28;20019;-61
2022/06/17 10:49:00;;;;;;;7.28;4.03;;;24.80;95.70;;;;;;4985405;28;20484;-62
2022/06/17 10:51:27;;;;;;;6.20;3.38;;;24.90;96.20;;;;;;4994199;28;20026;-61
2022/06/17 10:54:03;;;;;;;8.95;4.45;;;25.10;96.30;;;;;;4993980;28;20109;-60
2022/06/17 10:56:39;;;;;;;6.82;5.00;;;25.20;96.40;;;;;;4994269;28;20054;-60
2022/06/17 10:59:09;;;;;;;8.10;4.80;;;25.40;95.50;;;;;;4994416;28;20036;-61
2022/06/17 11:01:52;;;;;;;6.07;4.17;;;25.40;95.40;;;;;;4993977;28;20081;-61
2022/06/17 11:04:28;;;;;;;7.43;4.20;;;25.50;95.50;;;;;;4994226;28;20348;-60
2022/06/17 11:07:06;;;;;;;7.85;4.18;;;25.60;95.80;;;;;;4992293;28;20034;-62
2022/06/17 11:09:39;;;;;;;6.38;3.88;;;25.80;95.90;;;;;;4993376;28;20105;-61
2022/06/17 11:12:16;;;;;;;6.35;3.90;;;25.80;95.50;;;;;;4992924;28;20145;-60
2022/06/17 11:14:44;;;;;;;6.15;4.13;;;26.00;95.20;;;;;;4994074;28;20479;-61
2022/06/17 11:17:27;;;;;;;5.25;3.28;;;26.00;94.10;;;;;;4992886;28;20026;-61
2022/06/17 11:20:02;;;;;;;8.82;4.57;;;25.80;94.60;;;;;;4993359;28;20033;-61
2022/06/17 11:22:38;;;;;;;9.15;3.50;;;25.80;94.50;;;;;;4989155;28;20046;-62
2022/06/17 11:25:37;;;;;;;7.85;3.22;;;25.80;93.60;;;;;;4994066;28;20027;-61
2022/06/17 11:28:18;;;;;;;6.80;3.75;;;25.80;93.80;;;;;;4993892;28;20042;-60
2022/06/17 11:31:12;;;;;;;8.63;4.03;;;25.90;93.50;;;;;;4994074;28;20121;-59
2022/06/17 11:33:55;;;;;;;5.43;3.40;;;25.90;93.80;;;;;;4992537;28;20049;-61
2022/06/17 11:36:23;;;;;;;6.32;3.42;;;25.90;93.40;;;;;;4994070;28;20034;-61
2022/06/17 11:38:50;;;;;;;6.65;3.28;;;25.90;93.80;;;;;;4993834;28;20431;-60
2022/06/17 11:41:30;;;;;;;7.03;3.58;;;26.00;93.40;;;;;;4992402;28;20558;-60
2022/06/17 11:44:06;;;;;;;6.82;3.25;;;26.00;93.30;;;;;;4993799;28;20567;-60
2022/06/17 11:46:34;;;;;;;6.38;3.75;;;25.90;93.30;;;;;;4993047;28;20484;-61
2022/06/17 11:49:08;;;;;;;10.18;3.92;;;26.00;93.70;;;;;;4990556;28;20026;-61
2022/06/17 11:51:39;;;;;;;8.73;3.75;;;26.20;93.70;;;;;;4993414;28;20391;-61
2022/06/17 11:54:23;;;;;;;5.20;3.55;;;26.30;93.30;;;;;;4991605;28;20076;-60
2022/06/17 11:56:51;;;;;;;8.10;4.10;;;26.10;93.10;;;;;;4990055;28;20030;-59
2022/06/17 11:59:21;;;;;;;5.35;3.30;;;26.00;92.40;;;;;;4993774;28;20037;-61
2022/06/17 12:01:53;;;;;;;8.95;3.53;;;25.80;92.80;;;;;;4993866;28;20029;-61
2022/06/17 12:04:45;;;;;;;9.32;3.40;;;25.90;93.10;;;;;;4994329;28;20391;-60
2022/06/17 12:07:28;;;;;;;11.02;4.25;;;26.00;92.70;;;;;;4978321;28;20022;-61
2022/06/17 12:10:26;;;;;;;7.68;3.90;;;25.90;92.40;;;;;;4996018;28;20094;-61
2022/06/17 12:12:56;;;;;;;6.13;3.42;;;25.80;92.30;;;;;;4997147;28;20038;-61
2022/06/17 12:15:22;;;;;;;14.30;4.63;;;25.80;93.30;;;;;;4997734;28;20030;-62
2022/06/17 12:17:49;;;;;;;8.00;3.80;;;25.90;92.40;;;;;;4997550;28;20030;-62
2022/06/17 12:20:17;;;;;;;5.78;3.95;;;26.00;92.60;;;;;;4997321;28;20549;-62
2022/06/17 12:22:56;;;;;;;5.85;3.90;;;26.00;92.60;;;;;;4997031;28;20057;-62
2022/06/17 12:25:38;;;;;;;6.65;3.55;;;26.00;92.50;;;;;;4997237;28;20025;-62
2022/06/17 12:28:21;;;;;;;6.95;3.92;;;26.00;92.80;;;;;;4997453;28;20022;-62
2022/06/17 12:31:15;;;;;;;9.13;3.90;;;26.00;92.60;;;;;;4997043;28;20045;-62
2022/06/17 12:33:48;;;;;;;5.30;3.72;;;26.00;92.80;;;;;;4996882;28;20088;-62
2022/06/17 12:36:34;;;;;;;7.28;3.78;;;25.80;93.00;;;;;;4996814;28;20480;-61
2022/06/17 12:39:19;;;;;;;5.07;3.60;;;25.60;93.40;;;;;;4996958;28;20026;-58
2022/06/17 12:42:37;;;;;;;6.25;3.55;;;25.40;93.80;;;;;;4996780;28;20030;-62
2022/06/17 12:45:16;;;;;;;6.45;3.75;;;25.30;93.90;;;;;;4989381;28;20033;-62
2022/06/17 12:48:00;;;;;;;7.85;3.30;;;25.20;93.30;;;;;;4996885;28;20026;-62
2022/06/17 12:53:41;;;;;;;6.50;3.53;;;25.00;92.70;;;;;;4996709;28;20041;-61
2022/06/17 12:56:45;;;;;;;5.20;3.42;;;25.00;93.10;;;;;;4996821;28;20026;-61
2022/06/17 12:59:41;;;;;;;5.95;3.60;;;25.10;93.40;;;;;;4995382;28;20035;-62
2022/06/17 13:02:40;;;;;;;6.15;3.40;;;25.20;93.30;;;;;;4988436;28;20034;-62
2022/06/17 13:05:28;;;;;;;4.93;3.38;;;25.30;93.00;;;;;;4996699;28;20081;-60
2022/06/17 13:07:54;;;;;;;4.60;3.45;;;25.40;92.80;;;;;;4996362;28;20081;-59
2022/06/17 13:10:46;;;;;;;5.38;3.30;;;25.40;92.70;;;;;;4996405;28;20081;-59
2022/06/17 13:13:27;;;;;;;4.68;3.08;;;25.40;92.80;;;;;;4996136;28;20027;-58
2022/06/17 13:16:21;;;;;;;5.18;3.15;;;25.40;93.10;;;;;;4995002;28;20026;-58
2022/06/17 13:19:10;;;;;;;3.78;3.20;;;25.40;93.40;;;;;;4996660;28;20045;-57
2022/06/17 13:21:43;;;;;;;5.45;2.95;;;25.40;93.40;;;;;;4994006;28;20039;-57
2022/06/17 13:24:15;;;;;;;9.45;3.92;;;25.30;93.30;;;;;;4995179;28;20031;-57
2022/06/17 13:26:56;;;;;;;5.80;3.45;;;25.40;93.40;;;;;;4996454;28;20106;-56
2022/06/17 13:29:33;;;;;;;;;;;25.50;92.90;;;;;;4995542;28;20026;-58